Time;durP1;ratioP1;P1;durP2;ratioP2;P2;SDS_P1;SDS_P2;PMS_P1;PMS_P2;Temp;Humidity;BMP_temperature;BMP_pressure;BME280_temperature;BME280_humidity;BME280_pressure;Samples;Min_cycle;Max_cycle;Signal;HPM_P1;HPM_P2
2023/04/12 00:00:37;;;;;;;23.30;12.70;;;;;;;9.24;100.00;98576.30;106041;1259;60611;-80
2023/04/12 00:03:09;;;;;;;19.50;12.80;;;;;;;9.07;100.00;98575.65;106019;1258;74774;-82
2023/04/12 00:05:37;;;;;;;19.90;12.60;;;;;;;9.09;100.00;98570.24;105976;1260;69521;-80
2023/04/12 00:08:10;;;;;;;26.70;15.70;;;;;;;8.95;100.00;98567.23;106092;1261;73189;-82
2023/04/12 00:10:39;;;;;;;24.40;15.00;;;;;;;8.98;100.00;98559.64;106072;1259;63072;-81
2023/04/12 00:13:07;;;;;;;27.20;16.00;;;;;;;8.89;100.00;98554.92;105933;1257;61487;-81
2023/04/12 00:15:44;;;;;;;25.70;15.40;;;;;;;8.89;100.00;98548.83;106040;1257;74663;-82
2023/04/12 00:18:13;;;;;;;20.80;14.90;;;;;;;8.86;100.00;98543.96;106157;1257;69562;-82
2023/04/12 00:20:42;;;;;;;23.40;15.40;;;;;;;8.92;100.00;98535.91;106111;1259;72139;-82
2023/04/12 00:23:16;;;;;;;17.60;14.00;;;;;;;8.90;100.00;98534.48;106020;1255;62870;-82
2023/04/12 00:25:44;;;;;;;18.30;14.00;;;;;;;8.85;100.00;98533.04;106047;1254;60921;-81
2023/04/12 00:28:13;;;;;;;18.40;14.30;;;;;;;8.84;100.00;98528.49;105996;1260;74704;-81
2023/04/12 00:30:41;;;;;;;23.10;15.70;;;;;;;8.77;100.00;98525.06;106064;1254;70023;-81
2023/04/12 00:33:10;;;;;;;22.10;15.00;;;;;;;8.77;100.00;98524.42;106069;1260;73730;-80
2023/04/12 00:35:38;;;;;;;19.90;14.10;;;;;;;8.89;100.00;98521.20;105960;1254;61688;-80
2023/04/12 00:38:09;;;;;;;22.00;16.70;;;;;;;8.78;100.00;98520.83;106139;1259;60577;-82
2023/04/12 00:40:41;;;;;;;22.70;16.10;;;;;;;8.71;100.00;98516.77;106148;1254;73748;-80
2023/04/12 00:43:14;;;;;;;27.60;16.80;;;;;;;8.62;100.00;98512.95;106050;1258;67500;-82
2023/04/12 00:45:44;;;;;;;26.30;17.30;;;;;;;8.57;100.00;98503.85;105998;1254;70840;-81
2023/04/12 00:48:19;;;;;;;24.20;15.40;;;;;;;8.59;100.00;98499.25;106047;1256;62573;-81
2023/04/12 00:50:48;;;;;;;19.50;14.90;;;;;;;8.54;100.00;98496.58;106210;1254;61067;-82
2023/04/12 00:53:17;;;;;;;;;;;;;;;8.53;100.00;98490.48;106074;1258;74259;-82
2023/04/12 00:55:45;;;;;;;21.10;15.00;;;;;;;8.59;100.00;98492.30;106175;1254;69819;-82
2023/04/12 00:58:15;;;;;;;22.90;15.40;;;;;;;8.62;100.00;98494.39;106295;1258;72927;-82
2023/04/12 01:00:48;;;;;;;20.60;15.10;;;;;;;8.69;100.00;98490.64;106170;1259;62252;-82
2023/04/12 01:03:26;;;;;;;21.10;15.00;;;;;;;8.54;100.00;98487.74;106216;1254;60641;-82
2023/04/12 01:06:08;;;;;;;20.80;15.20;;;;;;;8.61;100.00;98483.15;106242;1256;73743;-82
2023/04/12 01:08:40;;;;;;;21.40;15.70;;;;;;;8.57;100.00;98477.69;106267;1254;68014;-82
2023/04/12 01:11:38;;;;;;;18.70;15.20;;;;;;;8.54;100.00;98476.52;106211;1255;73777;-83
2023/04/12 01:14:09;;;;;;;;;;;;;;;8.54;100.00;98475.07;106158;1260;63098;-83
2023/04/12 01:16:49;;;;;;;24.80;16.10;;;;;;;8.50;100.00;98467.20;106297;1254;60441;-82
2023/04/12 01:19:34;;;;;;;23.00;14.60;;;;;;;8.52;100.00;98466.83;106276;1253;74673;-82
2023/04/12 01:22:31;;;;;;;17.50;13.00;;;;;;;8.50;100.00;98462.82;106305;1254;69196;-83
2023/04/12 01:25:15;;;;;;;17.20;13.80;;;;;;;8.55;100.00;98464.16;106212;1254;73043;-85
2023/04/12 01:27:52;;;;;;;17.90;14.10;;;;;;;8.54;100.00;98458.50;106277;1253;61419;-83
2023/04/12 01:30:20;;;;;;;20.80;15.40;;;;;;;8.52;100.00;98453.56;106333;1254;61383;-83
2023/04/12 01:32:52;;;;;;;23.70;15.40;;;;;;;8.45;100.00;98448.05;106166;1261;73812;-82
2023/04/12 01:35:23;;;;;;;18.60;14.50;;;;;;;8.51;100.00;98439.88;106046;1262;66778;-83
2023/04/12 01:37:53;;;;;;;23.70;14.70;;;;;;;8.57;100.00;98435.91;106153;1254;72813;-82
2023/04/12 01:40:21;;;;;;;19.60;14.60;;;;;;;8.63;100.00;98429.07;106226;1254;62242;-82
2023/04/12 01:42:49;;;;;;;19.00;14.50;;;;;;;8.60;100.00;98426.50;106200;1254;60369;-83
2023/04/12 01:45:23;;;;;;;23.30;14.30;;;;;;;8.54;100.00;98421.85;106246;1258;73734;-83
2023/04/12 01:47:54;;;;;;;27.50;15.20;;;;;;;8.60;100.00;98418.20;106448;1254;69233;-82
2023/04/12 01:50:26;;;;;;;17.40;14.10;;;;;;;8.80;100.00;98416.33;106239;1254;73841;-83
2023/04/12 01:53:04;;;;;;;21.80;15.30;;;;;;;8.95;100.00;98412.92;106292;1257;61140;-84
2023/04/12 01:55:32;;;;;;;24.00;15.70;;;;;;;8.58;100.00;98403.92;106329;1254;61047;-83
2023/04/12 01:58:02;;;;;;;19.10;14.20;;;;;;;8.51;100.00;98406.50;106419;1257;73607;-83
2023/04/12 02:00:31;;;;;;;18.10;14.60;;;;;;;8.64;100.00;98404.19;106125;1254;69582;-83
2023/04/12 02:03:01;;;;;;;20.20;14.90;;;;;;;8.57;100.00;98400.94;105947;1259;72933;-81
2023/04/12 02:05:31;;;;;;;21.80;15.30;;;;;;;8.63;100.00;98400.61;106351;1258;61131;-84
2023/04/12 02:08:01;;;;;;;28.50;18.10;;;;;;;8.61;100.00;98398.73;106276;1252;60789;-82
2023/04/12 02:10:39;;;;;;;42.60;30.50;;;;;;;8.53;100.00;98392.80;106076;1257;74791;-86
2023/04/12 02:13:07;;;;;;;42.90;33.10;;;;;;;8.47;100.00;98388.04;105966;1254;68616;-83
2023/04/12 02:15:37;;;;;;;33.00;23.10;;;;;;;8.79;100.00;98386.84;106095;1254;73723;-84
2023/04/12 02:18:10;;;;;;;25.30;18.30;;;;;;;9.01;100.00;98388.55;105986;1257;61377;-87
2023/04/12 02:20:42;;;;;;;20.40;15.60;;;;;;;8.74;100.00;98382.40;105937;1254;60837;-82
2023/04/12 02:23:11;;;;;;;23.50;16.60;;;;;;;8.62;100.00;98379.04;107733;1253;74214;-80
2023/04/12 02:25:40;;;;;;;23.30;15.80;;;;;;;8.63;100.00;98376.38;108651;1253;68558;-80
2023/04/12 02:28:09;;;;;;;23.30;16.40;;;;;;;8.56;100.00;98376.38;106049;1257;73761;-84
2023/04/12 02:30:44;;;;;;;24.40;16.30;;;;;;;8.58;100.00;98371.95;105984;1254;62261;-81
2023/04/12 02:33:14;;;;;;;24.00;16.20;;;;;;;8.59;100.00;98374.19;106398;1254;61968;-81
2023/04/12 02:35:43;;;;;;;24.50;15.30;;;;;;;8.46;100.00;98376.27;106043;1261;73593;-81
2023/04/12 02:38:13;;;;;;;19.70;14.10;;;;;;;8.63;100.00;98376.95;106444;1254;68567;-83
2023/04/12 02:40:42;;;;;;;25.00;15.10;;;;;;;9.14;100.00;98376.15;106429;1254;73391;-83
2023/04/12 02:43:13;;;;;;;17.00;14.10;;;;;;;9.28;100.00;98374.92;106299;1254;61979;-83
2023/04/12 02:45:46;;;;;;;16.60;13.20;;;;;;;9.51;100.00;98374.88;106294;1253;61087;-82
2023/04/12 02:48:18;;;;;;;20.40;13.80;;;;;;;9.51;100.00;98368.52;106478;1257;74513;-81
2023/04/12 02:50:46;;;;;;;16.80;15.00;;;;;;;8.85;100.00;98365.79;106387;1255;69797;-83
2023/04/12 02:53:21;;;;;;;16.80;12.90;;;;;;;8.53;100.00;98359.05;106519;1254;73417;-82
2023/04/12 02:56:08;;;;;;;;;;;;;;;8.41;100.00;98357.88;106358;1254;60992;-80
2023/04/12 02:58:38;;;;;;;22.30;14.40;;;;;;;8.50;100.00;98354.95;106340;1260;60328;-83
2023/04/12 03:01:11;;;;;;;19.50;15.00;;;;;;;8.69;100.00;98352.61;106480;1253;73109;-83
2023/04/12 03:03:56;;;;;;;23.40;13.90;;;;;;;8.80;100.00;98352.00;106500;1253;69493;-82
2023/04/12 03:06:51;;;;;;;21.80;14.50;;;;;;;8.92;100.00;98345.38;106687;1254;72469;-81
2023/04/12 03:09:22;;;;;;;17.60;12.80;;;;;;;8.54;100.00;98343.05;106290;1254;149779;-82
2023/04/12 03:11:52;;;;;;;18.90;14.60;;;;;;;8.57;100.00;98341.13;106315;1257;60444;-81
2023/04/12 03:14:22;;;;;;;26.10;12.70;;;;;;;8.56;100.00;98343.27;106275;1260;75153;-81
2023/04/12 03:16:53;;;;;;;30.70;15.90;;;;;;;8.65;100.00;98337.06;105905;1257;68615;-80
2023/04/12 03:19:21;;;;;;;;;;;;;;;8.76;100.00;98336.38;106120;1256;70983;-81
2023/04/12 03:21:58;;;;;;;18.40;14.90;;;;;;;9.26;100.00;98333.63;106230;1256;62152;-82
2023/04/12 03:24:28;;;;;;;23.00;15.20;;;;;;;9.27;100.00;98335.61;106106;1256;61413;-82
2023/04/12 03:26:57;;;;;;;22.10;15.90;;;;;;;9.16;100.00;98327.15;106264;1260;73999;-81
2023/04/12 03:29:25;;;;;;;21.50;15.80;;;;;;;9.12;100.00;98327.48;106265;1258;69800;-81
2023/04/12 03:31:58;;;;;;;22.10;16.70;;;;;;;9.12;100.00;98320.90;106561;1256;72524;-81
2023/04/12 03:34:34;;;;;;;27.00;17.50;;;;;;;8.74;100.00;98319.48;106187;1256;61452;-82
2023/04/12 03:37:09;;;;;;;27.80;18.00;;;;;;;8.99;100.00;98322.98;106369;1256;60983;-83
2023/04/12 03:39:46;;;;;;;22.50;17.30;;;;;;;9.07;100.00;98322.54;106728;1256;74413;-82
2023/04/12 03:42:19;;;;;;;27.30;18.40;;;;;;;9.12;100.00;98323.63;106247;1257;68774;-82
2023/04/12 03:45:03;;;;;;;24.80;17.00;;;;;;;8.87;100.00;98327.58;106351;1257;73421;-83
2023/04/12 03:47:32;;;;;;;25.10;16.90;;;;;;;9.17;100.00;98331.86;106958;1256;61999;-83
2023/04/12 03:50:05;;;;;;;23.10;18.00;;;;;;;9.66;100.00;98330.59;106703;1253;60426;-81
2023/04/12 03:52:39;;;;;;;29.30;16.80;;;;;;;9.93;100.00;98332.02;106543;1257;74881;-82
2023/04/12 03:55:08;;;;;;;23.00;17.60;;;;;;;9.56;100.00;98328.41;106471;1254;69846;-81
2023/04/12 03:57:39;;;;;;;28.20;17.80;;;;;;;9.85;100.00;98332.84;106390;1254;72093;-81
2023/04/12 04:00:09;;;;;;;24.30;16.90;;;;;;;9.86;100.00;98332.71;106187;1253;62130;-83
2023/04/12 04:03:08;;;;;;;20.20;14.00;;;;;;;9.87;100.00;98328.59;106359;1253;60990;-82
2023/04/12 04:05:47;;;;;;;21.80;18.20;;;;;;;9.80;100.00;98329.33;106342;1260;72662;-81
2023/04/12 04:08:17;;;;;;;25.60;18.90;;;;;;;10.02;100.00;98333.25;106465;1254;69578;-83
2023/04/12 04:10:55;;;;;;;25.00;17.70;;;;;;;9.93;100.00;98333.46;106783;1254;72895;-82
2023/04/12 04:13:32;;;;;;;22.90;17.10;;;;;;;10.17;100.00;98330.17;107004;1254;61923;-81
2023/04/12 04:16:08;;;;;;;23.40;17.70;;;;;;;9.96;100.00;98330.67;106481;1257;60373;-81
2023/04/12 04:18:37;;;;;;;21.20;17.20;;;;;;;10.01;100.00;98329.81;106186;1253;74905;-81
2023/04/12 04:21:15;;;;;;;24.30;16.90;;;;;;;10.04;100.00;98330.55;106468;1253;69871;-82
2023/04/12 04:23:44;;;;;;;32.60;20.40;;;;;;;10.07;100.00;98329.68;106443;1253;73759;-82
2023/04/12 04:26:19;;;;;;;25.80;18.20;;;;;;;10.27;100.00;98329.59;106397;1254;61612;-81
2023/04/12 04:29:03;;;;;;;27.50;18.60;;;;;;;10.26;100.00;98326.90;106532;1253;61524;-82
2023/04/12 04:31:37;;;;;;;26.40;16.40;;;;;;;10.31;100.00;98328.52;106767;1253;74612;-82
2023/04/12 04:34:07;;;;;;;25.20;18.30;;;;;;;10.53;100.00;98327.04;106512;1253;68470;-82
2023/04/12 04:36:42;;;;;;;26.70;19.30;;;;;;;10.03;100.00;98323.11;106589;1254;73008;-83
2023/04/12 04:39:22;;;;;;;25.90;19.10;;;;;;;10.27;100.00;98326.61;106951;1254;61797;-83
2023/04/12 04:41:53;;;;;;;26.00;20.00;;;;;;;9.71;100.00;98321.39;107048;1253;60541;-83
2023/04/12 04:44:44;;;;;;;26.40;18.80;;;;;;;9.65;100.00;98327.55;106770;1253;75004;-84
2023/04/12 04:47:13;;;;;;;27.90;20.30;;;;;;;9.76;100.00;98328.28;106923;1253;68600;-83
2023/04/12 04:49:44;;;;;;;32.80;17.80;;;;;;;9.73;100.00;98328.84;107250;1257;72992;-83
2023/04/12 04:52:26;;;;;;;27.40;20.70;;;;;;;9.65;100.00;98328.73;107072;1253;60543;-82
2023/04/12 04:55:09;;;;;;;28.70;20.30;;;;;;;9.83;100.00;98328.50;106578;1254;61395;-85
2023/04/12 04:58:13;;;;;;;25.90;19.10;;;;;;;9.69;100.00;98329.08;106161;1264;73583;-84
2023/04/12 05:00:43;;;;;;;22.90;17.60;;;;;;;9.78;100.00;98326.61;105969;1256;70169;-83
2023/04/12 05:03:13;;;;;;;25.70;18.40;;;;;;;9.63;100.00;98328.85;105926;1261;73206;-85
2023/04/12 05:05:47;;;;;;;23.60;17.10;;;;;;;9.73;100.00;98324.50;106067;1256;62448;-82
2023/04/12 05:08:18;;;;;;;36.10;21.50;;;;;;;9.96;100.00;98326.32;105919;1257;60475;-85
2023/04/12 05:10:52;;;;;;;25.30;19.10;;;;;;;9.99;100.00;98323.02;106427;1261;74071;-84
2023/04/12 05:13:23;;;;;;;23.10;19.90;;;;;;;9.98;100.00;98317.04;106625;1256;69221;-84
2023/04/12 05:15:52;;;;;;;26.60;20.10;;;;;;;9.93;100.00;98320.06;106437;1257;73458;-83
2023/04/12 05:18:25;;;;;;;26.70;19.60;;;;;;;9.92;100.00;98323.18;106003;1256;61861;-81
2023/04/12 05:20:53;;;;;;;30.30;20.80;;;;;;;9.98;100.00;98319.39;106263;1256;60426;-82
2023/04/12 05:23:22;;;;;;;28.60;20.60;;;;;;;10.15;100.00;98314.27;106410;1261;74888;-84
2023/04/12 05:25:59;;;;;;;24.00;17.80;;;;;;;10.23;100.00;98314.20;106709;1256;67966;-82
2023/04/12 05:28:30;;;;;;;31.40;19.00;;;;;;;10.17;100.00;98310.34;107580;1256;73566;-80
2023/04/12 05:31:00;;;;;;;25.10;17.40;;;;;;;10.33;100.00;98314.73;108695;1254;59895;-83
2023/04/12 05:33:43;;;;;;;25.70;18.70;;;;;;;10.60;100.00;98311.36;106921;1254;62043;-83
2023/04/12 05:36:13;;;;;;;28.20;18.20;;;;;;;10.87;100.00;98311.30;107075;1256;73599;-82
2023/04/12 05:38:53;;;;;;;24.30;18.10;;;;;;;10.88;100.00;98315.26;107060;1254;69271;-83
2023/04/12 05:41:24;;;;;;;23.60;16.70;;;;;;;10.40;100.00;98304.69;106591;1254;72817;-82
2023/04/12 05:43:53;;;;;;;24.30;18.40;;;;;;;10.30;100.00;98306.56;106335;1254;62343;-82
2023/04/12 05:46:30;;;;;;;26.40;19.20;;;;;;;10.53;100.00;98305.38;106197;1255;60454;-82
2023/04/12 05:48:58;;;;;;;23.10;17.20;;;;;;;10.57;100.00;98303.52;106952;1255;73865;-84
2023/04/12 05:51:32;;;;;;;20.10;16.20;;;;;;;10.68;100.00;98305.50;106561;1260;69531;-83
2023/04/12 05:54:14;;;;;;;19.80;15.70;;;;;;;10.60;100.00;98309.16;106879;1258;72844;-82
2023/04/12 05:56:43;;;;;;;22.90;15.20;;;;;;;10.41;100.00;98303.06;106508;1255;62058;-84
2023/04/12 05:59:26;;;;;;;22.40;15.10;;;;;;;10.32;100.00;98295.67;106648;1253;61311;-80
2023/04/12 06:01:54;;;;;;;21.60;14.70;;;;;;;9.99;100.00;98295.16;106411;1258;74860;-82
2023/04/12 06:04:25;;;;;;;22.70;17.40;;;;;;;10.25;100.00;98292.85;106455;1257;68520;-83
2023/04/12 06:07:18;;;;;;;17.80;12.10;;;;;;;10.13;100.00;98284.90;106143;1257;72582;-83
2023/04/12 06:09:48;;;;;;;23.80;16.70;;;;;;;10.34;100.00;98286.84;106377;1254;60581;-82
2023/04/12 06:12:17;;;;;;;24.00;17.60;;;;;;;11.23;100.00;98288.36;106620;1259;60610;-82
2023/04/12 06:14:48;;;;;;;21.70;15.80;;;;;;;11.52;100.00;98287.31;106772;1253;74778;-83
2023/04/12 06:17:17;;;;;;;22.90;17.00;;;;;;;11.45;100.00;98291.17;106100;1253;68627;-82
2023/04/12 06:19:46;;;;;;;;;;;;;;;10.92;100.00;98285.88;106811;1253;73777;-82
2023/04/12 06:22:16;;;;;;;22.10;16.00;;;;;;;10.17;100.00;98278.17;106387;1253;61679;-82
2023/04/12 06:24:48;;;;;;;18.90;14.60;;;;;;;10.47;100.00;98280.23;106236;1258;60448;-81
2023/04/12 06:27:19;;;;;;;23.40;17.90;;;;;;;10.50;100.00;98277.02;106156;1254;74594;-83
2023/04/12 06:29:48;;;;;;;21.70;15.20;;;;;;;10.52;100.00;98273.23;106370;1255;68587;-82
2023/04/12 06:32:17;;;;;;;24.90;18.20;;;;;;;10.37;100.00;98267.77;106204;1253;73590;-81
2023/04/12 06:34:47;;;;;;;22.00;16.20;;;;;;;10.26;100.00;98265.43;105982;1253;60549;-82
2023/04/12 06:37:17;;;;;;;24.20;19.00;;;;;;;10.44;100.00;98267.11;106046;1253;61500;-80
2023/04/12 06:39:45;;;;;;;24.00;16.30;;;;;;;10.37;100.00;98263.93;106102;1253;73610;-86
2023/04/12 06:42:14;;;;;;;23.00;17.70;;;;;;;10.21;100.00;98259.95;106278;1253;67259;-82
2023/04/12 06:44:43;;;;;;;23.50;17.30;;;;;;;10.31;100.00;98259.60;106315;1253;73670;-81
2023/04/12 06:47:15;;;;;;;23.00;16.80;;;;;;;10.16;100.00;98256.66;106396;1253;61896;-81
2023/04/12 06:49:44;;;;;;;;;;;;;;;10.27;100.00;98257.38;106482;1256;61424;-83
2023/04/12 06:52:12;;;;;;;29.80;22.50;;;;;;;10.30;100.00;98257.42;106244;1257;74461;-84
2023/04/12 06:54:42;;;;;;;22.60;18.50;;;;;;;10.45;100.00;98254.92;106051;1253;69719;-83
2023/04/12 06:57:11;;;;;;;23.00;17.10;;;;;;;10.53;100.00;98259.88;106033;1253;71325;-83
2023/04/12 06:59:44;;;;;;;24.70;16.60;;;;;;;10.39;100.00;98254.06;106097;1253;61094;-82
2023/04/12 07:02:12;;;;;;;24.10;16.70;;;;;;;10.33;100.00;98254.91;105956;1253;60416;-83
2023/04/12 07:04:41;;;;;;;17.50;14.70;;;;;;;10.21;100.00;98249.16;106414;1256;72894;-81
2023/04/12 07:07:11;;;;;;;21.50;16.80;;;;;;;10.43;100.00;98254.13;106267;1254;69492;-81
2023/04/12 07:09:39;;;;;;;18.40;14.50;;;;;;;10.37;100.00;98253.07;106155;1254;72514;-83
2023/04/12 07:12:07;;;;;;;21.40;15.10;;;;;;;10.38;100.00;98251.93;106172;1255;60915;-81
2023/04/12 07:14:37;;;;;;;19.00;14.50;;;;;;;10.48;100.00;98252.09;106234;1253;61447;-83
2023/04/12 07:17:07;;;;;;;23.70;15.50;;;;;;;10.50;100.00;98246.45;106051;1256;74008;-82
2023/04/12 07:19:35;;;;;;;17.60;13.90;;;;;;;10.51;100.00;98250.08;106148;1256;69291;-83
2023/04/12 07:22:09;;;;;;;18.70;14.70;;;;;;;10.77;100.00;98248.55;106517;1253;73436;-82
2023/04/12 07:24:41;;;;;;;20.50;16.20;;;;;;;10.81;100.00;98251.46;106683;1253;61919;-83
2023/04/12 07:27:09;;;;;;;20.80;15.90;;;;;;;10.59;100.00;98243.60;106392;1253;60347;-81
2023/04/12 07:29:38;;;;;;;17.90;13.90;;;;;;;10.60;100.00;98242.41;106381;1253;73546;-78
2023/04/12 07:32:07;;;;;;;;;;;;;;;10.77;100.00;98240.66;106326;1253;69828;-82
2023/04/12 07:34:35;;;;;;;;;;;;;;;10.73;100.00;98241.23;106362;1257;71017;-81
2023/04/12 07:37:05;;;;;;;15.60;12.20;;;;;;;10.85;100.00;98236.64;106227;1253;61117;-79
2023/04/12 07:39:34;;;;;;;19.10;13.40;;;;;;;10.72;100.00;98238.56;106360;1253;61451;-80
2023/04/12 07:42:14;;;;;;;14.90;11.90;;;;;;;10.74;100.00;98236.23;106276;1257;74747;-81
2023/04/12 07:44:43;;;;;;;19.00;14.70;;;;;;;11.50;100.00;98241.73;106177;1255;69921;-79
2023/04/12 07:47:11;;;;;;;15.40;12.80;;;;;;;11.56;100.00;98235.72;106329;1255;71715;-81
2023/04/12 07:49:39;;;;;;;12.80;11.00;;;;;;;11.75;100.00;98235.97;106383;1257;62276;-81
2023/04/12 07:52:08;;;;;;;13.60;11.40;;;;;;;11.68;100.00;98238.88;106325;1254;61360;-80
2023/04/12 07:54:46;;;;;;;18.60;13.50;;;;;;;12.18;100.00;98239.42;106406;1255;75023;-84
2023/04/12 07:57:15;;;;;;;15.00;10.70;;;;;;;12.35;100.00;98236.21;106510;1253;67963;-80
2023/04/12 07:59:43;;;;;;;12.50;9.90;;;;;;;12.37;100.00;98234.61;106409;1253;72201;-84
2023/04/12 08:02:11;;;;;;;16.80;12.10;;;;;;;12.16;100.00;98229.35;106436;1257;60540;-80
2023/04/12 08:04:43;;;;;;;18.00;12.40;;;;;;;12.08;100.00;98228.88;106425;1253;61376;-82
2023/04/12 08:07:16;;;;;;;11.00;9.60;;;;;;;12.35;100.00;98227.98;106254;1260;74517;-81
2023/04/12 08:09:47;;;;;;;34.50;17.80;;;;;;;12.17;100.00;98227.73;106310;1254;69132;-80
2023/04/12 08:12:16;;;;;;;12.20;9.40;;;;;;;12.09;100.00;98230.23;106309;1257;73254;-82
2023/04/12 08:14:45;;;;;;;44.40;24.50;;;;;;;11.56;100.00;98223.78;106221;1261;61556;-81
2023/04/12 08:17:15;;;;;;;32.40;17.00;;;;;;;11.77;100.00;98225.34;106349;1253;61147;-80
2023/04/12 08:19:46;;;;;;;12.20;8.00;;;;;;;10.99;100.00;98218.36;106352;1256;74861;-85
2023/04/12 08:22:19;;;;;;;25.30;15.40;;;;;;;11.31;100.00;98218.95;106635;1254;69601;-88
2023/04/12 08:24:52;;;;;;;28.40;15.50;;;;;;;11.08;100.00;98217.05;107746;1254;73561;-89
2023/04/12 08:30:39;;;;;;;23.40;14.50;;;;;;;11.44;100.00;98212.80;106576;1262;59472;-88
2023/04/12 08:33:32;;;;;;;17.60;11.70;;;;;;;11.18;100.00;98212.73;107734;1262;74207;-90
2023/04/12 08:36:09;;;;;;;42.80;18.90;;;;;;;10.26;100.00;98203.48;108745;1265;67438;-87
2023/04/12 08:38:44;;;;;;;30.40;15.20;;;;;;;10.38;100.00;98206.32;107796;1265;72411;-88
2023/04/12 08:41:15;;;;;;;12.70;8.20;;;;;;;10.48;100.00;98208.42;107283;1267;62747;-91
2023/04/12 08:43:48;;;;;;;100.80;38.10;;;;;;;10.24;100.00;98204.84;106606;1267;60530;-85
2023/04/12 08:46:22;;;;;;;14.60;10.40;;;;;;;10.34;100.00;98205.41;107003;1267;73646;-89
2023/04/12 08:48:56;;;;;;;23.20;13.30;;;;;;;10.44;100.00;98204.88;106769;1271;66474;-89
2023/04/12 08:51:31;;;;;;;38.60;20.40;;;;;;;11.44;100.00;98209.51;107373;1265;73168;-89
2023/04/12 08:54:08;;;;;;;;;;;;;;;12.32;100.00;98210.50;107087;1265;61825;-87
2023/04/12 08:56:41;;;;;;;19.20;11.70;;;;;;;12.64;100.00;98209.66;106925;1265;60284;-89
2023/04/12 08:59:36;;;;;;;35.40;17.80;;;;;;;12.89;100.00;98203.66;106448;1267;73497;-88
2023/04/12 09:02:10;;;;;;;46.90;22.80;;;;;;;12.75;100.00;98200.55;107204;1267;69947;-88
2023/04/12 09:05:08;;;;;;;18.00;10.20;;;;;;;13.03;100.00;98200.45;107526;1267;71161;-85
2023/04/12 09:07:43;;;;;;;33.90;17.80;;;;;;;11.91;100.00;98198.08;107320;1270;62370;-86
2023/04/12 09:10:36;;;;;;;29.60;16.60;;;;;;;11.65;100.00;98189.48;107872;1267;59187;-89
2023/04/12 09:13:09;;;;;;;23.00;15.90;;;;;;;11.80;100.00;98189.23;107126;1262;74127;-89
2023/04/12 09:15:49;;;;;;;8.50;7.50;;;;;;;11.87;100.00;98188.04;107219;1263;68231;-89
2023/04/12 09:18:26;;;;;;;8.90;7.80;;;;;;;11.77;100.00;98182.88;107921;1262;71689;-87
2023/04/12 09:21:18;;;;;;;18.40;13.00;;;;;;;12.09;100.00;98182.24;107584;1264;61700;-89
2023/04/12 09:24:01;;;;;;;9.80;8.10;;;;;;;12.17;100.00;98187.52;107102;1264;60935;-90
2023/04/12 09:26:36;;;;;;;25.20;13.60;;;;;;;12.26;100.00;98188.98;107100;1264;73531;-90
2023/04/12 09:29:06;;;;;;;10.70;8.20;;;;;;;12.22;100.00;98181.77;107171;1264;68666;-90
2023/04/12 09:31:40;;;;;;;26.70;13.20;;;;;;;11.92;100.00;98178.61;106869;1264;70426;-88
2023/04/12 09:34:13;;;;;;;20.90;11.20;;;;;;;12.08;100.00;98175.20;106308;1264;60874;-90
2023/04/12 09:36:41;;;;;;;8.40;6.40;;;;;;;12.30;100.00;98178.95;107205;1263;61422;-87
2023/04/12 09:39:33;;;;;;;21.80;11.50;;;;;;;11.96;100.00;98175.51;106494;1268;73102;-90
2023/04/12 09:42:20;;;;;;;35.20;17.60;;;;;;;11.40;100.00;98173.38;106518;1269;69592;-88
2023/04/12 09:45:22;;;;;;;8.30;6.90;;;;;;;11.36;100.00;98168.75;106466;1267;73415;-87
2023/04/12 09:47:54;;;;;;;10.10;7.50;;;;;;;11.48;100.00;98170.99;106749;1266;61763;-90
2023/04/12 09:50:33;;;;;;;12.60;8.50;;;;;;;11.50;100.00;98176.59;106646;1265;60215;-92
2023/04/12 09:53:16;;;;;;;7.40;5.90;;;;;;;11.13;100.00;98170.66;106700;1265;73819;-89
2023/04/12 09:56:07;;;;;;;31.20;17.50;;;;;;;11.38;100.00;98172.42;107437;1265;68942;-90
2023/04/12 09:58:38;;;;;;;9.80;7.00;;;;;;;11.44;100.00;98170.95;106983;1266;73206;-88
2023/04/12 10:01:08;;;;;;;12.00;9.40;;;;;;;11.58;100.00;98165.45;106845;1262;63301;-89
2023/04/12 10:03:52;;;;;;;12.00;8.20;;;;;;;11.81;100.00;98166.58;107252;1262;60768;-88
2023/04/12 10:06:26;;;;;;;6.60;5.70;;;;;;;11.87;100.00;98162.71;106800;1265;73629;-89
2023/04/12 10:08:56;;;;;;;8.90;6.40;;;;;;;12.15;100.00;98161.30;106868;1265;67538;-87
2023/04/12 10:11:28;;;;;;;11.70;8.80;;;;;;;12.19;100.00;98161.23;106809;1270;71948;-90
2023/04/12 10:14:03;;;;;;;16.50;12.30;;;;;;;11.41;100.00;98161.03;106455;1264;60691;-88
2023/04/12 10:16:34;;;;;;;14.90;13.20;;;;;;;11.35;100.00;98159.77;106647;1265;60057;-88
2023/04/12 10:19:03;;;;;;;13.00;9.70;;;;;;;11.63;100.00;98156.77;107113;1264;73060;-91
2023/04/12 10:21:39;;;;;;;11.00;8.90;;;;;;;11.39;100.00;98154.67;107425;1265;68819;-88
2023/04/12 10:24:31;;;;;;;7.20;6.50;;;;;;;11.31;100.00;98153.84;107156;1265;72828;-89
2023/04/12 10:27:02;;;;;;;11.30;8.20;;;;;;;11.54;100.00;98153.70;107135;1268;62834;-85
2023/04/12 10:29:35;;;;;;;17.80;11.40;;;;;;;11.51;100.00;98151.21;107035;1268;60415;-90
2023/04/12 10:32:21;;;;;;;12.50;8.90;;;;;;;11.75;100.00;98157.84;106798;1276;73014;-90
2023/04/12 10:34:55;;;;;;;7.30;6.20;;;;;;;11.91;100.00;98156.85;106845;1268;68302;-89
2023/04/12 10:38:06;;;;;;;8.30;7.20;;;;;;;11.81;100.00;98151.64;107374;1264;72042;-91
2023/04/12 10:40:37;;;;;;;8.20;7.10;;;;;;;11.85;100.00;98153.98;106072;1276;61649;-86
2023/04/12 10:43:27;;;;;;;6.90;6.20;;;;;;;11.81;100.00;98150.88;105703;1277;61452;-87
2023/04/12 10:46:03;;;;;;;10.10;5.70;;;;;;;11.83;100.00;98154.34;105815;1276;74950;-86
2023/04/12 10:48:39;;;;;;;8.60;6.60;;;;;;;11.72;100.00;98152.69;105787;1276;69234;-88
2023/04/12 10:51:27;;;;;;;7.80;6.80;;;;;;;11.69;100.00;98154.14;105796;1276;72045;-89
2023/04/12 10:55:05;;;;;;;11.80;9.60;;;;;;;11.79;100.00;98152.76;106206;1276;63210;-87
2023/04/12 10:58:51;;;;;;;14.10;10.10;;;;;;;12.21;100.00;98150.80;105578;1282;60648;-89
2023/04/12 11:02:06;;;;;;;16.10;10.00;;;;;;;12.44;100.00;98149.70;105174;1283;75012;-87
2023/04/12 11:04:39;;;;;;;21.50;14.20;;;;;;;12.58;100.00;98148.08;104651;1286;69950;-87
2023/04/12 11:07:21;;;;;;;16.90;13.90;;;;;;;12.25;100.00;98153.33;104610;1286;72371;-86
2023/04/12 11:10:14;;;;;;;8.90;7.70;;;;;;;12.24;100.00;98153.23;104224;1290;62961;-85
2023/04/12 11:12:53;;;;;;;;;;;;;;;12.26;100.00;98150.99;104951;1285;60576;-88
2023/04/12 11:15:25;;;;;;;15.30;9.10;;;;;;;12.49;100.00;98150.27;104911;1289;72662;-86
2023/04/12 11:17:59;;;;;;;9.30;8.20;;;;;;;12.43;100.00;98151.89;105268;1273;69871;-85
2023/04/12 11:20:33;;;;;;;16.50;13.40;;;;;;;12.59;100.00;98151.88;105737;1273;73341;-88
2023/04/12 11:23:06;;;;;;;11.50;9.50;;;;;;;12.32;100.00;98148.64;105546;1274;62310;-89
2023/04/12 11:25:51;;;;;;;;;;;;;;;11.20;100.00;98147.40;106849;1272;60401;-88
2023/04/12 11:28:22;;;;;;;13.70;10.40;;;;;;;11.17;100.00;98147.13;106428;1268;73096;-89
2023/04/12 11:31:04;;;;;;;16.70;12.70;;;;;;;11.75;100.00;98145.39;106308;1267;69958;-86
2023/04/12 11:33:37;;;;;;;21.60;15.20;;;;;;;11.79;100.00;98144.52;106435;1274;73039;-89
2023/04/12 11:36:13;;;;;;;14.80;11.50;;;;;;;12.07;100.00;98144.10;106545;1268;60744;-88
2023/04/12 11:38:44;;;;;;;9.70;8.30;;;;;;;11.97;100.00;98139.36;108712;1261;60343;-84
2023/04/12 11:42:02;;;;;;;7.20;6.30;;;;;;;11.57;100.00;98138.67;108631;1261;73352;-89
2023/04/12 11:44:56;;;;;;;16.60;10.60;;;;;;;11.11;100.00;98135.88;107281;1264;67122;-91
2023/04/12 11:47:51;;;;;;;17.70;13.00;;;;;;;10.97;100.00;98131.20;106253;1264;70863;-88